Time;durP1;ratioP1;P1;durP2;ratioP2;P2;SDS_P1;SDS_P2;PMS_P1;PMS_P2;Temp;Humidity;BMP_temperature;BMP_pressure;BME280_temperature;BME280_humidity;BME280_pressure;Samples;Min_cycle;Max_cycle;Signal;HPM_P1;HPM_P2
2021/12/22 00:01:49;;;;;;;14.38;9.13;;;;;;;-1.94;68.55;101713.47;5006962;28;20076;-70
2021/12/22 00:04:15;;;;;;;13.30;10.70;;;;;;;-2.06;69.61;101713.47;5010944;28;20038;-69
2021/12/22 00:06:40;;;;;;;15.88;10.52;;;;;;;-2.16;69.55;101699.03;5011076;28;20061;-69
2021/12/22 00:09:08;;;;;;;25.10;10.73;;;;;;;-2.22;69.37;101680.63;5005261;28;20057;-69
2021/12/22 00:11:33;;;;;;;21.25;12.38;;;;;;;-1.93;69.39;101716.13;5008552;28;20046;-68
2021/12/22 00:14:01;;;;;;;15.40;11.65;;;;;;;-2.11;69.73;101683.94;5005268;28;20165;-71
2021/12/22 00:16:29;;;;;;;15.15;10.30;;;;;;;-2.12;70.08;101677.03;5005906;28;20045;-69
2021/12/22 00:18:55;;;;;;;19.92;10.80;;;;;;;-1.97;69.97;101700.38;5005081;28;20557;-71
2021/12/22 00:23:50;;;;;;;15.27;9.85;;;;;;;-1.92;70.51;101704.16;5031548;27;20659;-70
2021/12/22 00:26:18;;;;;;;16.38;10.32;;;;;;;-1.98;69.98;101696.03;5021784;28;20068;-70
2021/12/22 00:28:46;;;;;;;14.90;10.65;;;;;;;-2.04;70.45;101724.75;5018544;28;20058;-69
2021/12/22 00:31:14;;;;;;;15.50;9.98;;;;;;;-2.46;71.89;101727.66;5023463;28;20037;-70
2021/12/22 00:33:47;;;;;;;16.10;10.43;;;;;;;-2.54;71.90;101714.25;5021775;28;20037;-70
2021/12/22 00:36:14;;;;;;;19.35;11.48;;;;;;;-2.31;71.32;101739.09;5017684;28;20049;-70
2021/12/22 00:38:40;;;;;;;13.90;10.05;;;;;;;-2.47;71.80;101713.94;5020098;28;20081;-72
2021/12/22 00:41:06;;;;;;;19.95;10.20;;;;;;;-2.25;71.07;101742.09;5021270;28;20077;-70
2021/12/22 00:43:31;;;;;;;17.83;10.20;;;;;;;-2.66;71.99;101723.66;5022991;28;20049;-70
2021/12/22 00:45:57;;;;;;;17.55;11.43;;;;;;;-2.79;72.77;101751.00;5023213;28;20032;-69
2021/12/22 00:48:23;;;;;;;24.35;12.68;;;;;;;-3.11;73.53;101728.00;5022821;28;20115;-70
2021/12/22 00:50:49;;;;;;;25.85;14.25;;;;;;;-3.13;73.43;101726.09;5027574;28;20116;-69
2021/12/22 00:53:17;;;;;;;19.50;13.13;;;;;;;-3.28;73.62;101731.88;5023369;28;20156;-69
2021/12/22 00:55:43;;;;;;;22.15;14.43;;;;;;;-3.05;73.63;101764.41;5023704;28;20059;-69
2021/12/22 00:58:08;;;;;;;25.95;14.32;;;;;;;-2.88;73.03;101746.81;5023654;28;20033;-69
2021/12/22 01:00:34;;;;;;;20.05;12.32;;;;;;;-3.19;73.54;101771.03;5019746;28;20029;-72
2021/12/22 01:03:00;;;;;;;23.42;13.40;;;;;;;-3.77;75.17;101737.38;5023397;28;20041;-70
2021/12/22 01:05:26;;;;;;;21.40;13.57;;;;;;;-3.89;75.06;101739.88;5021084;28;20056;-70
2021/12/22 01:07:52;;;;;;;18.60;12.45;;;;;;;-3.89;75.78;101768.09;5019421;28;20065;-70
2021/12/22 01:10:23;;;;;;;20.65;13.15;;;;;;;-4.21;76.31;101747.56;5022129;28;20497;-71
2021/12/22 01:12:49;;;;;;;21.63;12.77;;;;;;;-4.40;76.38;101745.16;5021440;28;20034;-72
2021/12/22 01:15:15;;;;;;;21.70;13.50;;;;;;;-4.39;77.12;101744.41;5022834;28;20076;-69
2021/12/22 01:17:48;;;;;;;23.27;13.88;;;;;;;-4.57;77.58;101777.97;5024599;28;20041;-69
2021/12/22 01:20:28;;;;;;;19.90;12.20;;;;;;;-4.61;77.49;101775.03;5023055;28;20045;-69
2021/12/22 01:23:02;;;;;;;20.05;13.38;;;;;;;-4.79;77.40;101774.44;5019467;28;21732;-69
2021/12/22 01:25:29;;;;;;;25.40;15.20;;;;;;;-4.98;77.44;101764.31;5021454;28;20038;-69
2021/12/22 01:27:54;;;;;;;22.95;16.02;;;;;;;-5.24;78.39;101747.66;5016754;28;20029;-69
2021/12/22 01:30:23;;;;;;;23.63;15.15;;;;;;;-5.25;78.14;101758.66;5018911;28;20803;-71
2021/12/22 01:32:52;;;;;;;24.77;15.23;;;;;;;-5.23;78.47;101759.66;5022493;28;20041;-68
2021/12/22 01:35:20;;;;;;;22.23;15.05;;;;;;;-4.91;78.35;101782.88;5008971;28;20053;-68
2021/12/22 01:37:46;;;;;;;19.30;14.05;;;;;;;-5.01;78.52;101774.28;5011828;28;20046;-69
2021/12/22 01:40:19;;;;;;;25.30;18.17;;;;;;;-5.09;78.53;101769.41;5009911;28;20069;-71
2021/12/22 01:42:46;;;;;;;26.42;16.05;;;;;;;-4.93;78.04;101783.50;5007454;28;20042;-69
2021/12/22 01:51:26;;;;;;;45.55;23.50;;;;;;;-5.05;78.92;101783.38;5011129;28;20052;-68
2021/12/22 01:53:57;;;;;;;29.38;22.27;;;;;;;-5.21;78.96;101781.16;5014166;28;20058;-69
2021/12/22 01:56:28;;;;;;;37.78;21.70;;;;;;;-5.07;78.48;101776.34;5007092;28;20054;-68
2021/12/22 01:58:57;;;;;;;32.90;20.40;;;;;;;-4.40;77.17;101801.53;5004790;28;20091;-68
2021/12/22 02:01:23;;;;;;;38.72;22.52;;;;;;;-3.99;75.46;101765.56;5009528;28;20029;-70
2021/12/22 02:03:50;;;;;;;31.38;18.67;;;;;;;-3.98;74.77;101788.78;5007317;28;20113;-69
2021/12/22 02:06:17;;;;;;;31.35;18.65;;;;;;;-4.85;75.49;101748.31;5008099;28;21820;-70
2021/12/22 02:08:45;;;;;;;29.02;19.88;;;;;;;-4.69;76.39;101776.97;5008020;28;20060;-70
2021/12/22 02:11:14;;;;;;;30.45;16.90;;;;;;;-4.16;75.02;101759.09;5012625;28;20355;-70
2021/12/22 02:13:43;;;;;;;31.73;18.65;;;;;;;-4.04;74.44;101747.25;5011327;28;20647;-70
2021/12/22 02:16:14;;;;;;;28.67;17.10;;;;;;;-3.92;73.87;101755.03;5007179;28;20029;-73
2021/12/22 02:18:44;;;;;;;24.67;17.70;;;;;;;-3.82;74.23;101776.41;5012643;28;20033;-71
2021/12/22 02:21:09;;;;;;;28.17;18.10;;;;;;;-3.85;73.99;101745.38;5005785;28;20156;-71
2021/12/22 02:23:35;;;;;;;24.73;15.18;;;;;;;-3.69;73.64;101755.19;5006053;28;20052;-69
2021/12/22 02:26:29;;;;;;;32.10;20.20;;;;;;;-3.64;73.47;101748.72;5006057;28;20504;-72
2021/12/22 02:29:04;;;;;;;26.02;16.95;;;;;;;-3.64;73.68;101743.59;5004473;28;20564;-69
2021/12/22 02:31:34;;;;;;;27.55;18.95;;;;;;;-3.57;72.83;101724.47;5010615;28;22954;-69
2021/12/22 02:33:59;;;;;;;31.50;15.40;;;;;;;-3.57;72.73;101732.16;5007986;28;20085;-69
2021/12/22 02:36:29;;;;;;;38.92;18.92;;;;;;;-3.57;73.53;101755.25;5011789;28;20855;-69
2021/12/22 02:38:58;;;;;;;23.20;15.77;;;;;;;-3.74;73.66;101748.78;5008851;28;20045;-69
2021/12/22 02:41:28;;;;;;;30.38;17.30;;;;;;;-3.63;73.40;101731.66;5005951;28;20054;-69
2021/12/22 02:43:56;;;;;;;26.30;16.73;;;;;;;-3.29;72.93;101731.72;5010563;28;20053;-69
2021/12/22 02:46:23;;;;;;;25.65;18.30;;;;;;;-3.41;73.18;101726.56;5005596;28;20490;-70
2021/12/22 02:48:49;;;;;;;26.17;16.92;;;;;;;-3.15;73.35;101730.22;5009193;28;20038;-69
2021/12/22 02:54:02;;;;;;;41.72;17.52;;;;;;;-3.53;73.86;101728.19;5022149;28;20640;-69
2021/12/22 02:56:37;;;;;;;24.55;17.27;;;;;;;-3.44;74.63;101751.97;5018239;28;20199;-69
2021/12/22 03:02:09;;;;;;;24.65;18.50;;;;;;;-3.51;74.29;101726.59;5016686;28;20096;-69
2021/12/22 03:04:44;;;;;;;21.92;15.40;;;;;;;-3.34;74.18;101739.06;5016223;28;20061;-69
2021/12/22 03:07:16;;;;;;;23.48;17.83;;;;;;;-3.89;74.88;101734.75;5016357;28;20034;-69
2021/12/22 03:09:42;;;;;;;25.58;16.02;;;;;;;-3.63;75.40;101726.53;5016901;28;20092;-69
2021/12/22 03:12:12;;;;;;;32.13;16.73;;;;;;;-3.50;74.29;101730.97;5015006;28;20046;-69
2021/12/22 03:14:37;;;;;;;28.73;17.88;;;;;;;-3.55;74.68;101725.47;5015072;28;20417;-70
2021/12/22 03:17:03;;;;;;;22.63;16.75;;;;;;;-3.67;74.92;101751.06;5015268;28;20073;-70
2021/12/22 03:19:32;;;;;;;30.95;20.27;;;;;;;-3.57;75.74;101721.91;5017535;28;21357;-70
2021/12/22 03:22:02;;;;;;;28.27;18.75;;;;;;;-3.52;75.24;101712.88;5024892;28;20041;-67
2021/12/22 03:24:29;;;;;;;32.65;19.70;;;;;;;-3.56;75.22;101694.56;5015008;28;20081;-70
2021/12/22 03:26:59;;;;;;;31.15;19.00;;;;;;;-3.38;75.20;101706.25;5015796;28;20045;-69
2021/12/22 03:29:24;;;;;;;22.77;18.17;;;;;;;-3.58;74.95;101712.44;5012336;28;20057;-71
2021/12/22 03:31:50;;;;;;;28.73;19.13;;;;;;;-3.66;75.55;101734.00;5015156;28;20038;-69
2021/12/22 03:34:16;;;;;;;25.33;19.05;;;;;;;-3.70;76.54;101740.59;5017414;28;20501;-69
2021/12/22 03:36:43;;;;;;;23.23;17.88;;;;;;;-3.79;76.59;101714.22;5034848;28;20119;-69
2021/12/22 03:39:10;;;;;;;35.75;19.92;;;;;;;-3.72;76.62;101710.44;5033557;28;20103;-69
2021/12/22 03:41:36;;;;;;;29.35;20.30;;;;;;;-3.73;77.26;101718.91;5033419;28;20049;-69
2021/12/22 03:44:03;;;;;;;32.20;20.42;;;;;;;-3.50;76.70;101743.81;5034608;28;20047;-69
2021/12/22 03:46:29;;;;;;;25.13;17.95;;;;;;;-3.50;76.27;101719.03;5032811;28;20045;-69
2021/12/22 03:48:54;;;;;;;23.00;19.52;;;;;;;-3.33;76.19;101722.00;5048135;28;20058;-69
2021/12/22 03:51:20;;;;;;;29.23;20.23;;;;;;;-3.32;75.66;101734.06;5034723;28;20077;-72
2021/12/22 03:53:45;;;;;;;27.00;18.38;;;;;;;-3.20;75.95;101758.09;5034780;28;20556;-70
2021/12/22 03:56:11;;;;;;;24.42;18.50;;;;;;;-3.29;75.62;101765.09;5036488;28;20523;-70
2021/12/22 03:58:36;;;;;;;28.40;20.38;;;;;;;-3.55;76.46;101739.97;5035560;28;20075;-69
2021/12/22 04:01:03;;;;;;;31.02;20.65;;;;;;;-3.35;76.99;101754.34;5035761;28;20120;-69
2021/12/22 04:03:32;;;;;;;31.33;19.17;;;;;;;-3.12;76.08;101754.44;5028436;28;20129;-70
2021/12/22 04:05:58;;;;;;;23.05;19.20;;;;;;;-3.28;76.12;101746.34;5022426;28;20204;-69
2021/12/22 04:08:23;;;;;;;31.88;20.08;;;;;;;-3.25;76.65;101744.03;5020747;28;20057;-69
2021/12/22 04:10:49;;;;;;;27.02;19.00;;;;;;;-3.10;75.57;101719.53;5021225;28;20053;-69
2021/12/22 04:13:17;;;;;;;31.15;19.10;;;;;;;-3.16;75.67;101733.56;5020783;28;20091;-69
2021/12/22 04:15:44;;;;;;;29.95;21.70;;;;;;;-3.20;75.88;101758.09;5023455;28;20408;-70
2021/12/22 04:18:10;;;;;;;26.15;19.83;;;;;;;-3.31;76.12;101746.13;5021796;28;20409;-69
2021/12/22 04:20:36;;;;;;;38.40;20.98;;;;;;;-3.42;76.47;101741.06;5021335;28;20084;-69
2021/12/22 04:23:02;;;;;;;32.40;21.17;;;;;;;-3.30;76.32;101730.84;5021158;28;20485;-69
2021/12/22 04:25:28;;;;;;;28.48;21.08;;;;;;;-3.13;76.06;101733.81;5019619;28;20050;-69
2021/12/22 04:27:56;;;;;;;30.42;22.00;;;;;;;-3.38;76.16;101731.03;5019815;28;20519;-72
2021/12/22 04:30:23;;;;;;;32.72;21.63;;;;;;;-3.67;76.62;101721.97;5022576;28;20093;-69
2021/12/22 04:32:49;;;;;;;31.35;21.33;;;;;;;-3.62;77.00;101736.94;5021539;28;20053;-70
2021/12/22 04:35:14;;;;;;;23.85;19.33;;;;;;;-3.26;76.68;101762.75;5020097;28;20053;-69
2021/12/22 04:37:40;;;;;;;26.02;20.73;;;;;;;-3.42;76.38;101751.31;5020097;28;20171;-69
2021/12/22 04:40:06;;;;;;;29.50;20.75;;;;;;;-3.29;76.50;101760.84;5021547;28;20507;-69
2021/12/22 04:42:31;;;;;;;24.15;16.80;;;;;;;-3.30;76.13;101723.16;5023728;28;20036;-69
2021/12/22 04:44:58;;;;;;;28.70;20.75;;;;;;;-3.71;76.61;101735.31;5021417;28;20065;-69
2021/12/22 04:47:24;;;;;;;27.45;22.08;;;;;;;-3.41;76.25;101742.84;5020251;28;20048;-69
2021/12/22 04:49:49;;;;;;;35.35;19.58;;;;;;;-3.08;76.17;101753.03;5021041;28;20408;-71
2021/12/22 04:52:18;;;;;;;40.72;21.02;;;;;;;-2.87;75.79;101751.19;5020958;28;20631;-70
2021/12/22 04:57:12;;;;;;;31.88;22.00;;;;;;;-3.10;76.23;101755.47;5020214;28;20078;-70
2021/12/22 04:59:38;;;;;;;26.65;20.25;;;;;;;-2.96;75.30;101774.47;5019858;28;20504;-70
2021/12/22 05:02:03;;;;;;;25.42;21.08;;;;;;;-3.36;75.47;101750.88;5022119;28;20050;-69
2021/12/22 05:04:29;;;;;;;32.83;20.95;;;;;;;-3.57;76.35;101749.22;5053416;28;20049;-68
2021/12/22 05:06:54;;;;;;;27.67;21.67;;;;;;;-3.45;76.25;101756.19;5052828;28;20042;-68
2021/12/22 05:09:20;;;;;;;32.13;21.65;;;;;;;-3.19;75.64;101750.50;5021662;28;20141;-68
2021/12/22 05:11:45;;;;;;;31.35;22.20;;;;;;;-2.90;75.30;101771.47;5021288;28;20348;-69
2021/12/22 05:14:10;;;;;;;30.10;20.63;;;;;;;-2.92;75.18;101760.22;5019244;28;20061;-69
2021/12/22 05:16:44;;;;;;;34.15;22.15;;;;;;;-2.77;74.77;101769.06;5018826;28;20559;-69
2021/12/22 05:21:35;;;;;;;42.05;22.85;;;;;;;-3.07;75.23;101770.19;5020898;28;20168;-70
2021/12/22 05:24:01;;;;;;;31.27;20.48;;;;;;;-3.24;75.30;101756.97;5020254;28;20554;-68
2021/12/22 05:26:28;;;;;;;30.52;20.83;;;;;;;-2.87;75.20;101785.47;5018947;28;20045;-68
2021/12/22 05:28:54;;;;;;;28.20;19.83;;;;;;;-2.78;75.20;101775.88;5017180;28;20045;-68
2021/12/22 05:31:21;;;;;;;39.15;22.38;;;;;;;-2.92;74.85;101770.50;5019685;28;21329;-68
2021/12/22 05:33:46;;;;;;;36.45;21.25;;;;;;;-2.78;74.38;101764.72;5020262;28;21004;-68
2021/12/22 05:36:12;;;;;;;37.70;23.10;;;;;;;-2.81;74.35;101780.81;5033310;28;20496;-68
2021/12/22 05:38:37;;;;;;;27.75;21.55;;;;;;;-2.89;74.36;101779.31;5018507;28;20132;-69
2021/12/22 05:41:04;;;;;;;41.03;21.52;;;;;;;-3.00;74.48;101760.53;5020000;28;20045;-68
2021/12/22 05:43:29;;;;;;;40.03;21.13;;;;;;;-3.10;74.62;101769.97;5018232;28;20045;-68
2021/12/22 05:45:55;;;;;;;29.80;20.83;;;;;;;-3.20;75.20;101768.38;5018597;28;20075;-68
2021/12/22 05:48:21;;;;;;;33.75;22.73;;;;;;;-3.01;74.69;101786.09;5020161;28;20179;-68
2021/12/22 05:50:50;;;;;;;31.27;21.63;;;;;;;-3.03;74.65;101791.09;5018270;28;20064;-68
2021/12/22 05:53:16;;;;;;;35.30;22.88;;;;;;;-2.90;74.70;101797.16;5019678;28;20049;-69
2021/12/22 05:55:42;;;;;;;36.03;24.80;;;;;;;-3.21;74.94;101764.91;5031748;28;20037;-68
2021/12/22 05:58:08;;;;;;;34.78;22.20;;;;;;;-3.16;74.64;101766.91;5020242;28;20033;-70
2021/12/22 06:00:35;;;;;;;28.98;20.73;;;;;;;-2.90;74.61;101777.53;5018880;28;20048;-68
2021/12/22 06:03:00;;;;;;;36.20;24.40;;;;;;;-3.04;74.26;101785.84;5018280;28;20033;-69
2021/12/22 06:05:26;;;;;;;33.88;21.88;;;;;;;-2.81;73.94;101805.56;5032332;28;20053;-70
2021/12/22 06:07:51;;;;;;;35.72;21.73;;;;;;;-3.05;74.10;101802.91;5018425;28;20069;-68
2021/12/22 06:10:17;;;;;;;31.33;21.23;;;;;;;-3.21;74.91;101785.44;5019059;28;20044;-68
2021/12/22 06:12:42;;;;;;;36.67;22.25;;;;;;;-3.36;75.17;101785.94;5020580;28;20074;-68
2021/12/22 06:15:09;;;;;;;31.08;23.90;;;;;;;-3.27;75.21;101791.78;5018826;28;20062;-68
2021/12/22 06:17:34;;;;;;;30.73;21.48;;;;;;;-3.15;74.77;101786.69;5017478;28;20091;-68
2021/12/22 06:20:00;;;;;;;30.42;21.70;;;;;;;-3.07;74.51;101783.91;5017952;28;20049;-68
2021/12/22 06:22:28;;;;;;;37.92;24.05;;;;;;;-2.95;74.70;101809.69;5020451;28;20057;-68
2021/12/22 06:24:54;;;;;;;30.05;22.30;;;;;;;-2.96;75.10;101823.28;5020108;28;20073;-71
2021/12/22 06:27:19;;;;;;;39.40;21.90;;;;;;;-3.09;75.87;101821.44;5013228;28;20361;-69
2021/12/22 06:29:45;;;;;;;28.40;21.08;;;;;;;-2.96;75.18;101800.16;5019531;28;20666;-70
2021/12/22 06:32:10;;;;;;;33.05;23.67;;;;;;;-3.08;74.90;101801.78;5018903;28;20050;-70
2021/12/22 06:34:36;;;;;;;30.30;22.05;;;;;;;-3.02;75.09;101781.72;5017802;28;20456;-70
2021/12/22 06:37:01;;;;;;;25.95;20.88;;;;;;;-2.86;74.23;101806.88;5018629;28;20666;-71
2021/12/22 06:39:27;;;;;;;36.13;24.63;;;;;;;-2.49;74.56;101808.00;5030829;28;20081;-70
2021/12/22 06:41:53;;;;;;;27.13;21.20;;;;;;;-2.52;74.47;101809.47;5030780;28;20048;-67
2021/12/22 06:46:00;;;;;;;33.10;22.02;;;;;;;-2.67;74.05;101798.91;5103398;27;20622;-69
2021/12/22 06:48:25;;;;;;;28.42;19.63;;;;;;;-2.62;73.38;101797.59;5082194;28;20406;-70
2021/12/22 06:50:51;;;;;;;28.63;22.33;;;;;;;-2.67;73.60;101812.66;5077829;28;20076;-70
2021/12/22 06:53:16;;;;;;;27.08;19.02;;;;;;;-2.65;74.09;101816.22;5086849;28;20044;-67
2021/12/22 06:55:42;;;;;;;53.05;23.48;;;;;;;-2.63;73.99;101819.81;5080604;28;20414;-68
2021/12/22 06:58:07;;;;;;;26.75;19.67;;;;;;;-2.57;74.07;101816.81;5085203;28;20036;-67
2021/12/22 07:00:35;;;;;;;28.85;21.40;;;;;;;-2.37;73.28;101811.47;5076933;28;20040;-71
2021/12/22 07:03:01;;;;;;;31.90;20.23;;;;;;;-2.48;72.37;101809.81;5060072;28;20492;-68
2021/12/22 07:05:27;;;;;;;27.98;18.55;;;;;;;-2.56;72.75;101832.34;5083140;28;20134;-70
2021/12/22 07:07:52;;;;;;;23.98;19.63;;;;;;;-2.55;71.84;101818.72;5084615;28;20135;-70
2021/12/22 07:10:18;;;;;;;27.10;19.13;;;;;;;-2.39;71.22;101825.91;5083183;28;20483;-69
2021/12/22 07:12:46;;;;;;;24.38;20.13;;;;;;;-2.41;71.03;101801.78;5083030;28;20036;-72
2021/12/22 07:15:13;;;;;;;34.15;20.10;;;;;;;-2.37;71.04;101814.03;5065081;28;20457;-70
2021/12/22 07:17:44;;;;;;;29.60;18.92;;;;;;;-2.31;70.87;101816.19;5079801;28;20032;-69
2021/12/22 07:20:10;;;;;;;28.35;19.55;;;;;;;-2.08;70.06;101824.69;5079850;28;20136;-72
2021/12/22 07:22:36;;;;;;;31.25;21.55;;;;;;;-2.09;70.20;101805.81;5077970;28;20132;-72
2021/12/22 07:25:03;;;;;;;26.00;18.40;;;;;;;-1.95;70.17;101815.41;5078688;28;20490;-68
2021/12/22 07:27:29;;;;;;;25.13;18.92;;;;;;;-1.79;69.77;101820.00;5079559;28;20384;-68
2021/12/22 07:29:55;;;;;;;37.22;21.63;;;;;;;-1.84;69.55;101810.19;5081892;28;20466;-68
2021/12/22 07:32:20;;;;;;;22.60;15.80;;;;;;;-1.75;68.86;101814.31;5078771;28;20572;-68
2021/12/22 07:34:51;;;;;;;29.92;18.13;;;;;;;-2.02;68.15;101825.16;5079573;28;20108;-68
2021/12/22 07:37:41;;;;;;;28.48;17.33;;;;;;;-2.21;68.06;101817.78;5081367;28;20097;-68
2021/12/22 07:40:14;;;;;;;28.83;18.00;;;;;;;-1.80;67.73;101822.50;5082883;28;20028;-71
2021/12/22 07:42:40;;;;;;;20.92;17.90;;;;;;;-1.91;67.43;101814.88;5080413;28;20032;-70
2021/12/22 07:45:06;;;;;;;34.15;17.85;;;;;;;-2.14;66.73;101812.28;5083205;28;20059;-69
2021/12/22 07:49:59;;;;;;;30.20;18.40;;;;;;;-1.79;66.46;101834.56;5005334;28;20634;-72
2021/12/22 07:52:27;;;;;;;23.40;17.70;;;;;;;-2.08;66.33;101814.41;4984076;28;20502;-70
2021/12/22 07:54:56;;;;;;;29.15;18.52;;;;;;;-2.19;65.77;101814.53;4979103;28;20122;-67
2021/12/22 07:57:22;;;;;;;23.83;18.63;;;;;;;-2.06;65.73;101839.50;4979878;28;21747;-70
2021/12/22 07:59:48;;;;;;;32.80;19.77;;;;;;;-1.89;65.73;101806.38;4980509;28;20052;-67
2021/12/22 08:02:14;;;;;;;31.42;18.75;;;;;;;-1.91;64.80;101807.16;4980514;28;20046;-72
2021/12/22 08:04:40;;;;;;;35.10;19.95;;;;;;;-1.52;65.32;101845.97;4981156;28;20053;-70
2021/12/22 08:07:05;;;;;;;25.88;17.63;;;;;;;-1.51;63.87;101812.59;4981809;28;20034;-72
2021/12/22 08:09:31;;;;;;;33.25;18.42;;;;;;;-1.50;63.65;101824.69;4980096;28;20045;-71
2021/12/22 08:12:04;;;;;;;23.85;17.95;;;;;;;-1.37;64.17;101848.72;4977865;28;20100;-70
2021/12/22 08:14:31;;;;;;;26.98;17.27;;;;;;;-1.19;64.38;101834.59;4979862;28;20497;-70
2021/12/22 08:17:53;;;;;;;23.23;17.90;;;;;;;-1.11;63.04;101845.41;5034175;28;20627;-72
2021/12/22 08:20:19;;;;;;;38.63;20.65;;;;;;;-0.95;63.39;101858.56;5030624;28;20052;-67
2021/12/22 08:22:45;;;;;;;34.38;19.40;;;;;;;-1.32;63.47;101849.94;5031129;28;20045;-70
2021/12/22 08:25:12;;;;;;;30.98;19.40;;;;;;;-1.18;64.06;101846.66;5028532;28;20055;-70
2021/12/22 08:27:38;;;;;;;33.55;19.10;;;;;;;-1.12;63.32;101874.53;5024590;28;20116;-69
2021/12/22 08:30:05;;;;;;;37.70;18.50;;;;;;;-0.89;62.51;101853.84;5030436;28;20556;-72
2021/12/22 08:32:31;;;;;;;26.67;17.58;;;;;;;-1.21;62.46;101861.00;5030914;28;20136;-70
2021/12/22 08:34:57;;;;;;;22.45;16.02;;;;;;;-0.99;61.48;101878.84;5029774;28;20038;-69
2021/12/22 08:40:09;;;;;;;25.55;17.40;;;;;;;-0.99;60.93;101841.09;5030559;28;20036;-69
2021/12/22 08:42:36;;;;;;;25.05;18.02;;;;;;;-0.80;60.34;101856.16;5026818;28;20037;-70
2021/12/22 08:45:01;;;;;;;37.40;18.10;;;;;;;-0.94;58.98;101844.00;5028576;28;20041;-69
2021/12/22 08:47:27;;;;;;;24.75;17.52;;;;;;;-0.77;58.70;101864.13;5027413;28;20048;-69
2021/12/22 08:49:53;;;;;;;21.20;15.27;;;;;;;-0.66;57.81;101870.91;5028264;28;20948;-70
2021/12/22 08:52:18;;;;;;;24.75;15.15;;;;;;;-0.61;58.57;101852.25;5033663;28;20158;-72
2021/12/22 08:54:43;;;;;;;29.65;16.42;;;;;;;-0.60;57.51;101843.75;5028130;28;20033;-68
2021/12/22 08:57:09;;;;;;;24.58;15.88;;;;;;;-0.19;56.24;101863.69;5027219;28;20045;-69
2021/12/22 08:59:35;;;;;;;22.25;16.30;;;;;;;-0.43;55.84;101844.09;5026465;28;20053;-69
2021/12/22 09:02:01;;;;;;;26.20;14.68;;;;;;;-0.16;54.73;101833.84;5029414;28;20088;-69
2021/12/22 09:04:26;;;;;;;18.65;14.57;;;;;;;-0.26;54.71;101849.50;5030043;28;20431;-68
2021/12/22 09:06:53;;;;;;;26.88;15.02;;;;;;;-0.81;54.68;101848.34;5029963;28;20021;-69
2021/12/22 09:09:20;;;;;;;20.55;13.63;;;;;;;-0.27;54.30;101851.19;5032989;28;20068;-69
2021/12/22 09:11:47;;;;;;;31.77;14.48;;;;;;;0.07;53.91;101847.34;5033154;28;23088;-69
2021/12/22 09:14:13;;;;;;;14.63;9.60;;;;;;;-0.17;50.58;101868.16;5033388;28;20048;-69
2021/12/22 09:16:40;;;;;;;18.73;13.40;;;;;;;-0.11;50.32;101862.53;5034038;28;20404;-70
2021/12/22 09:19:07;;;;;;;21.45;11.98;;;;;;;-0.04;52.80;101831.19;5034059;28;20098;-71
2021/12/22 09:21:34;;;;;;;18.63;13.25;;;;;;;-0.02;52.46;101829.59;5034586;28;20063;-69
2021/12/22 09:23:59;;;;;;;31.35;12.32;;;;;;;0.41;51.37;101843.59;5046971;28;20162;-70
2021/12/22 09:26:25;;;;;;;25.30;14.98;;;;;;;0.45;51.66;101842.09;5031626;28;20038;-69
2021/12/22 09:28:51;;;;;;;37.00;13.68;;;;;;;0.45;49.19;101836.94;5015352;28;20504;-69
2021/12/22 09:31:18;;;;;;;36.05;13.68;;;;;;;0.55;48.96;101823.81;5013996;28;20091;-69
2021/12/22 09:33:43;;;;;;;19.15;11.63;;;;;;;0.65;49.53;101808.88;5011189;28;20030;-69
2021/12/22 09:36:11;;;;;;;20.27;13.90;;;;;;;0.87;49.12;101809.44;5010039;28;20038;-68
2021/12/22 09:38:37;;;;;;;18.95;13.07;;;;;;;1.09;49.47;101816.78;5016484;28;20046;-68
2021/12/22 09:41:04;;;;;;;15.35;9.48;;;;;;;1.11;47.88;101820.38;5014168;28;20620;-71
2021/12/22 09:43:30;;;;;;;20.02;12.27;;;;;;;1.21;47.83;101811.47;5013198;28;20053;-68
2021/12/22 09:46:01;;;;;;;19.25;11.32;;;;;;;1.13;46.88;101823.94;5010529;28;20394;-69
2021/12/22 09:48:49;;;;;;;34.00;11.07;;;;;;;0.91;47.77;101808.81;5012461;28;20050;-68
2021/12/22 09:53:45;;;;;;;34.90;12.32;;;;;;;0.60;48.19;101806.91;5012754;28;20056;-68
2021/12/22 09:56:14;;;;;;;15.13;11.43;;;;;;;0.32;47.56;101793.06;4994508;28;20042;-69
2021/12/22 09:58:42;;;;;;;21.35;12.13;;;;;;;0.52;48.34;101817.56;5015559;28;20119;-71
2021/12/22 10:01:08;;;;;;;17.08;11.43;;;;;;;0.32;47.49;101774.97;5012302;28;20128;-69
2021/12/22 10:03:34;;;;;;;19.92;10.38;;;;;;;0.54;47.97;101783.28;5017145;28;20041;-69
2021/12/22 10:06:00;;;;;;;14.30;10.88;;;;;;;0.81;48.28;101767.72;5013086;28;20065;-72
2021/12/22 10:08:27;;;;;;;19.05;12.02;;;;;;;1.02;48.77;101796.56;5013195;28;20520;-73
2021/12/22 10:11:12;;;;;;;20.23;10.73;;;;;;;1.07;49.09;101739.97;5009175;28;20049;-69
2021/12/22 10:13:39;;;;;;;24.48;14.63;;;;;;;1.31;49.21;101762.13;5012865;28;20034;-69
2021/12/22 10:16:16;;;;;;;26.15;16.23;;;;;;;1.64;50.77;101794.25;5012463;28;20103;-71
2021/12/22 10:18:42;;;;;;;22.10;14.40;;;;;;;1.55;50.82;101760.06;5013796;28;20037;-71
2021/12/22 10:21:23;;;;;;;23.60;15.85;;;;;;;1.68;50.45;101782.34;5012838;28;20057;-70
2021/12/22 10:23:54;;;;;;;26.63;14.18;;;;;;;1.15;51.15;101767.19;5012800;28;20443;-69
2021/12/22 10:26:22;;;;;;;32.40;14.20;;;;;;;0.89;51.57;101755.25;5012708;28;20489;-69
2021/12/22 10:28:50;;;;;;;26.50;14.52;;;;;;;1.37;51.48;101756.41;5008504;28;20129;-69
2021/12/22 10:31:18;;;;;;;25.33;14.95;;;;;;;1.52;53.05;101783.16;5011145;28;20044;-68
2021/12/22 10:33:45;;;;;;;23.15;15.30;;;;;;;1.72;53.41;101760.16;5012204;28;20128;-70
2021/12/22 10:36:21;;;;;;;19.33;13.40;;;;;;;1.51;51.35;101744.28;5011599;28;20132;-70
2021/12/22 10:39:00;;;;;;;26.80;14.10;;;;;;;1.38;51.17;101759.09;5013137;28;20651;-70
2021/12/22 10:41:31;;;;;;;25.88;16.23;;;;;;;0.96;50.73;101742.81;5017730;28;20424;-70
2021/12/22 10:43:58;;;;;;;22.73;13.45;;;;;;;1.23;51.42;101750.41;5016076;28;20096;-69
2021/12/22 10:46:31;;;;;;;35.72;15.65;;;;;;;1.35;50.50;101755.41;5017156;28;20029;-71
2021/12/22 10:49:20;;;;;;;22.42;15.82;;;;;;;1.71;48.82;101756.69;5016102;28;20184;-70
2021/12/22 10:54:09;;;;;;;22.20;13.82;;;;;;;1.63;48.75;101766.56;5002047;28;20637;-71
2021/12/22 10:56:37;;;;;;;23.17;12.60;;;;;;;1.33;48.03;101744.97;4994844;28;20489;-70
2021/12/22 10:59:11;;;;;;;22.58;14.68;;;;;;;1.61;48.69;101733.66;4995434;28;20074;-68
2021/12/22 11:04:17;;;;;;;27.92;14.23;;;;;;;1.69;48.35;101759.19;5016377;28;20624;-70
2021/12/22 11:06:42;;;;;;;28.15;15.15;;;;;;;0.98;48.60;101724.78;4958396;28;20097;-70
2021/12/22 11:09:13;;;;;;;18.48;14.55;;;;;;;1.29;48.17;101742.13;4973527;28;20042;-69
2021/12/22 11:11:49;;;;;;;25.60;15.48;;;;;;;1.36;48.81;101731.34;4977806;28;20050;-68
2021/12/22 11:14:33;;;;;;;20.10;13.52;;;;;;;1.58;49.67;101751.59;4976434;28;20620;-70
2021/12/22 11:17:13;;;;;;;18.65;13.45;;;;;;;1.48;49.04;101737.25;4976371;28;20053;-69
2021/12/22 11:20:00;;;;;;;18.35;12.80;;;;;;;1.86;48.22;101757.53;4978650;28;20410;-69
2021/12/22 11:22:47;;;;;;;17.30;12.63;;;;;;;1.29;48.44;101735.28;4974829;28;20384;-71
2021/12/22 11:25:12;;;;;;;17.05;11.98;;;;;;;1.43;47.31;101743.84;4975718;28;20137;-69
2021/12/22 11:27:38;;;;;;;21.63;13.25;;;;;;;1.37;47.50;101739.19;4972242;28;20123;-69
2021/12/22 11:30:05;;;;;;;20.77;12.38;;;;;;;1.67;46.16;101737.50;4975134;28;20506;-70
2021/12/22 11:32:32;;;;;;;20.40;11.65;;;;;;;1.64;46.55;101745.09;4978371;28;20191;-69
2021/12/22 11:35:00;;;;;;;25.42;11.13;;;;;;;1.87;46.06;101746.41;4976223;28;20138;-69
2021/12/22 11:37:27;;;;;;;22.35;11.40;;;;;;;1.77;45.89;101750.97;4974303;28;20053;-71
2021/12/22 11:39:54;;;;;;;13.60;9.50;;;;;;;1.55;44.90;101741.97;4974713;28;20061;-69
2021/12/22 11:42:24;;;;;;;16.90;9.00;;;;;;;1.42;44.47;101737.75;4977506;28;20046;-69
2021/12/22 11:44:55;;;;;;;14.30;8.30;;;;;;;1.66;44.55;101743.47;4975609;28;20069;-69
2021/12/22 11:47:21;;;;;;;13.88;8.95;;;;;;;1.64;44.53;101723.50;4976607;28;20561;-69
2021/12/22 11:49:54;;;;;;;12.70;8.52;;;;;;;1.82;43.89;101752.09;4976133;28;20042;-69